Avon, CO

3:12 PM MDT on October 25, 2014 (GMT -0600)
Lake County | Change Station
CLOSE
Current Station
Airport
Location: Leadville,
Elevation: 9928 ft
Nearby Weather Stations

Elev 9928 ft 39.23 °N, 106.32 °W | Updated 19 minutes ago

Clear
Clear
61 °F
Feels Like 61 °F
N
16
Wind Variable Wind from SSW
Gusts 22 mph

Today
High -- | Low -- °F
--% Chance of Precip.
Yesterday
High -- | Low -- °F
Precip. -- in
7:26 AM 6:12 PM
Waxing Crescent, 4% visible
Pressure 30.02 in
Visibility 10.0 miles
Clouds Clear
Dew Point 5 °F
Humidity 11%
Rainfall 0.00 in
Snow Depth 10 in
UV 4 out of 12
Pollen 2.90 out of 12
Air Quality Not available.
Flu Activity Sporadic
METAR KLXV 252053Z AUTO 21014G19KT 10SM CLR 16/M15 A3039 RMK AO2 SLP166 T01611150 56021

More Conditions Fewer Conditions

Pressure 30.02 in
Visibility 10.0 miles
Clouds Clear
Dew Point 5 °F
Humidity 11%
Rainfall 0.00 in
Snow Depth 10 in
UV 4 out of 12
Pollen 2.90 out of 12
Air Quality Not available.
Flu Activity Sporadic
METAR KLXV 252053Z AUTO 21014G19KT 10SM CLR 16/M15 A3039 RMK AO2 SLP166 T01611150 56021

More Conditions Fewer Conditions

10-Day Weather Forecast

Almanac

Astronomy

Oct. 25, 2014 Rise Set
Actual Time 7:26 AM MDT 6:12 PM MDT
Civil Twilight 6:59 AM MDT 6:40 PM MDT
Nautical Twilight 6:27 AM MDT 7:11 PM MDT
Astronomical Twilight 5:56 AM MDT 7:43 PM MDT
Moon 9:08 AM MDT 7:38 PM MDT
Length of Visible Light 11h 41m
Length of Day
10h 45m
Tomorrow will be 2m 24s shorter.
Waxing Crescent, 4% of the Moon is Illuminated
Today
Waxing Crescent
Oct 30
First Quarter
Nov 6
Full
Nov 14
Last Quarter
Nov 22
New

Today's Extremes

State Highs State Lows

Community

WunderPhotos

Upload Photos

1,764,997 photos uploaded!

Nearby

Snow Depth

Station Depth Elevation
Mccoy Park 10 in 9480 ft
Kiln 0 in 9600 ft
Fremont Pass 0 in 11400 ft
Loveland Basin 2 in 11400 ft
Brumley 0 in 10600 ft

Earthquake Activity

City Distance Mag. Time & Date
No recent earthquake activity has been reported nearby.
Minimum magnitude displayed is 2.5.

Coastal Water Temperatures

Place Temperature
No Stations Reporting

Nearby Weather Stations